Time;durP1;ratioP1;P1;durP2;ratioP2;P2;SDS_P1;SDS_P2;PMS_P1;PMS_P2;Temp;Humidity;BMP_temperature;BMP_pressure;BME280_temperature;BME280_humidity;BME280_pressure;Samples;Min_cycle;Max_cycle;Signal;HPM_P1;HPM_P2
2022/09/13 00:01:33;;;;;;;4.00;2.58;;;;;;;;;;5030529;28;20041;-59
2022/09/13 00:03:59;;;;;;;5.53;2.85;;;;;;;;;;5024674;28;20036;-60
2022/09/13 00:06:25;;;;;;;3.15;2.85;;;;;;;;;;5030410;28;20032;-60
2022/09/13 00:08:53;;;;;;;4.13;2.65;;;;;;;;;;5030565;28;20033;-59
2022/09/13 00:11:23;;;;;;;3.53;2.70;;;;;;;;;;5025986;28;20034;-59
2022/09/13 00:13:49;;;;;;;3.90;2.20;;;;;;;;;;5030462;28;20048;-59
2022/09/13 00:16:17;;;;;;;3.80;2.60;;;;;;;;;;5031182;28;20472;-60
2022/09/13 00:18:42;;;;;;;3.03;2.47;;;;;;;;;;5030374;28;20136;-59
2022/09/13 00:21:13;;;;;;;3.22;2.30;;;;;;;;;;5008801;28;20029;-59
2022/09/13 00:23:40;;;;;;;3.53;2.67;;;;;;;;;;5029659;28;20079;-60
2022/09/13 00:26:13;;;;;;;2.92;2.50;;;;;;;;;;5027530;28;20983;-59
2022/09/13 00:28:39;;;;;;;;;;;;;;;;;;5024560;28;20039;-59
2022/09/13 00:31:07;;;;;;;4.57;2.42;;;;;;;;;;5030139;28;19945;-59
2022/09/13 00:33:33;;;;;;;2.85;2.55;;;;;;;;;;5029132;28;20477;-60
2022/09/13 00:36:03;;;;;;;3.67;2.50;;;;;;;;;;5028517;28;20156;-60
2022/09/13 00:38:29;;;;;;;2.92;2.53;;;;;;;;;;5027118;28;20107;-60
2022/09/13 00:40:55;;;;;;;4.15;2.33;;;;;;;;;;5021740;28;20033;-59
2022/09/13 00:43:40;;;;;;;4.55;2.80;;;;;;;;;;5029748;28;20048;-59
2022/09/13 00:46:06;;;;;;;5.40;2.55;;;;;;;;;;5032127;28;20022;-59
2022/09/13 00:48:34;;;;;;;4.97;2.70;;;;;;;;;;5024822;28;20154;-59
2022/09/13 00:51:01;;;;;;;4.97;2.72;;;;;;;;;;5028635;28;20033;-59
2022/09/13 00:53:32;;;;;;;3.13;2.60;;;;;;;;;;5028623;28;20033;-60
2022/09/13 00:56:13;;;;;;;4.05;2.85;;;;;;;;;;5028463;28;20428;-60
2022/09/13 00:58:46;;;;;;;3.22;2.17;;;;;;;;;;5025767;28;20033;-59
2022/09/13 01:01:14;;;;;;;3.83;2.90;;;;;;;;;;5022374;28;20469;-59
2022/09/13 01:03:41;;;;;;;3.67;2.70;;;;;;;;;;5022643;28;20087;-60
2022/09/13 01:06:13;;;;;;;3.88;2.63;;;;;;;;;;5030001;28;20034;-59
2022/09/13 01:08:40;;;;;;;4.53;2.70;;;;;;;;;;5028943;28;20496;-59
2022/09/13 01:11:10;;;;;;;5.10;2.80;;;;;;;;;;5027924;28;20493;-60
2022/09/13 01:13:36;;;;;;;3.22;2.33;;;;;;;;;;5028174;28;20036;-60
2022/09/13 01:16:02;;;;;;;3.08;2.58;;;;;;;;;;5010554;28;20018;-60
2022/09/13 01:18:28;;;;;;;4.03;2.90;;;;;;;;;;5026894;28;20712;-59
2022/09/13 01:21:12;;;;;;;6.68;2.80;;;;;;;;;;5016372;28;20034;-60
2022/09/13 01:23:48;;;;;;;3.30;3.00;;;;;;;;;;5028093;28;20037;-60
2022/09/13 01:26:40;;;;;;;3.88;2.95;;;;;;;;;;5032418;28;20452;-59
2022/09/13 01:29:21;;;;;;;5.97;3.08;;;;;;;;;;5028282;28;20057;-59
2022/09/13 01:31:53;;;;;;;6.50;3.00;;;;;;;;;;5033932;28;20437;-59
2022/09/13 01:34:19;;;;;;;4.38;2.70;;;;;;;;;;5028819;28;20501;-60
2022/09/13 01:36:55;;;;;;;3.75;2.78;;;;;;;;;;5032861;28;20029;-61
2022/09/13 01:39:28;;;;;;;3.60;2.67;;;;;;;;;;5030499;28;20025;-60
2022/09/13 01:41:54;;;;;;;;;;;;;;;;;;5027546;28;20049;-59
2022/09/13 01:44:28;;;;;;;3.22;2.88;;;;;;;;;;5028869;28;19949;-60
2022/09/13 01:46:59;;;;;;;3.58;2.47;;;;;;;;;;5024167;28;20116;-60
2022/09/13 01:49:45;;;;;;;3.22;2.70;;;;;;;;;;5029398;28;20084;-59
2022/09/13 01:52:34;;;;;;;3.42;2.78;;;;;;;;;;5029240;28;20078;-60
2022/09/13 01:55:08;;;;;;;3.55;2.88;;;;;;;;;;5033494;28;20021;-59
2022/09/13 01:57:39;;;;;;;3.13;2.53;;;;;;;;;;5033963;28;20542;-59
2022/09/13 02:00:09;;;;;;;3.00;2.70;;;;;;;;;;5033265;28;20104;-59
2022/09/13 02:02:38;;;;;;;3.90;3.00;;;;;;;;;;5030601;28;20530;-60
2022/09/13 02:05:09;;;;;;;3.45;2.92;;;;;;;;;;5027884;28;20167;-60
2022/09/13 02:07:38;;;;;;;4.00;2.97;;;;;;;;;;5033349;28;20083;-59
2022/09/13 02:10:09;;;;;;;3.47;3.00;;;;;;;;;;5033051;28;20436;-59
2022/09/13 02:12:37;;;;;;;5.25;3.05;;;;;;;;;;5033495;28;20025;-60
2022/09/13 02:15:13;;;;;;;3.70;2.80;;;;;;;;;;5033261;28;20036;-59
2022/09/13 02:17:42;;;;;;;4.88;3.05;;;;;;;;;;5031171;28;20121;-60
2022/09/13 02:20:13;;;;;;;3.40;3.10;;;;;;;;;;5031793;28;20037;-59
2022/09/13 02:22:50;;;;;;;5.35;3.15;;;;;;;;;;5022697;28;20053;-59
2022/09/13 02:25:18;;;;;;;3.25;2.95;;;;;;;;;;5033090;28;20037;-60
2022/09/13 02:27:46;;;;;;;7.15;3.20;;;;;;;;;;5032682;28;20037;-60
2022/09/13 02:30:13;;;;;;;3.78;2.80;;;;;;;;;;5031443;28;20101;-59
2022/09/13 02:32:43;;;;;;;3.90;2.88;;;;;;;;;;5032781;28;20426;-59
2022/09/13 02:35:09;;;;;;;5.03;2.88;;;;;;;;;;5032302;28;20552;-60
2022/09/13 02:37:37;;;;;;;3.30;2.72;;;;;;;;;;5030412;28;20108;-59
2022/09/13 02:40:23;;;;;;;4.60;3.00;;;;;;;;;;5027373;28;20135;-59
2022/09/13 02:42:52;;;;;;;3.20;2.70;;;;;;;;;;5031899;28;20046;-60
2022/09/13 02:45:21;;;;;;;3.58;2.85;;;;;;;;;;5028075;28;20039;-60
2022/09/13 02:47:55;;;;;;;4.28;3.40;;;;;;;;;;5009074;28;20114;-60
2022/09/13 02:50:40;;;;;;;3.67;3.03;;;;;;;;;;5032280;28;20622;-59
2022/09/13 02:53:22;;;;;;;4.90;3.65;;;;;;;;;;5021425;28;20034;-60
2022/09/13 02:55:54;;;;;;;4.43;3.53;;;;;;;;;;5027514;28;20033;-60
2022/09/13 02:58:53;;;;;;;6.25;3.60;;;;;;;;;;5031938;28;20025;-58
2022/09/13 03:01:20;;;;;;;4.60;3.60;;;;;;;;;;4975590;28;20048;-59
2022/09/13 03:03:46;;;;;;;5.85;3.72;;;;;;;;;;5031473;28;20507;-59
2022/09/13 03:06:12;;;;;;;4.22;3.35;;;;;;;;;;5031121;28;20125;-59
2022/09/13 03:08:38;;;;;;;3.65;3.10;;;;;;;;;;5031864;28;20088;-60
2022/09/13 03:11:17;;;;;;;4.30;3.15;;;;;;;;;;5025649;28;20049;-59
2022/09/13 03:13:52;;;;;;;5.53;3.60;;;;;;;;;;5028440;28;20527;-60
2022/09/13 03:16:36;;;;;;;4.95;3.75;;;;;;;;;;5031502;28;20465;-59
2022/09/13 03:19:20;;;;;;;5.47;3.50;;;;;;;;;;5024624;28;20390;-59
2022/09/13 03:22:02;;;;;;;4.35;3.80;;;;;;;;;;5028577;28;20033;-59
2022/09/13 03:24:41;;;;;;;5.32;3.97;;;;;;;;;;5029864;28;20039;-59
2022/09/13 03:27:17;;;;;;;4.40;3.53;;;;;;;;;;5030153;28;20538;-60
2022/09/13 03:29:43;;;;;;;7.38;4.18;;;;;;;;;;5030625;28;20030;-59
2022/09/13 03:32:18;;;;;;;6.75;4.00;;;;;;;;;;5031002;28;20491;-59
2022/09/13 03:34:50;;;;;;;5.93;3.72;;;;;;;;;;5023768;28;20044;-60
2022/09/13 03:37:27;;;;;;;6.85;4.13;;;;;;;;;;5031081;28;20131;-60
2022/09/13 03:39:56;;;;;;;5.25;3.92;;;;;;;;;;5030565;28;20043;-60
2022/09/13 03:42:41;;;;;;;6.38;3.72;;;;;;;;;;5030632;28;20086;-59
2022/09/13 03:45:08;;;;;;;5.43;4.00;;;;;;;;;;5031287;28;20041;-59
2022/09/13 03:47:36;;;;;;;5.55;4.20;;;;;;;;;;5027245;28;20025;-60
2022/09/13 03:50:03;;;;;;;5.25;3.80;;;;;;;;;;5025248;28;20068;-60
2022/09/13 03:52:29;;;;;;;5.70;4.32;;;;;;;;;;5029683;28;20465;-59
2022/09/13 03:54:55;;;;;;;4.55;3.80;;;;;;;;;;5025450;28;20105;-60
2022/09/13 03:57:22;;;;;;;5.13;4.07;;;;;;;;;;5030017;28;20030;-60
2022/09/13 03:59:52;;;;;;;5.90;3.97;;;;;;;;;;5012762;28;20039;-59
2022/09/13 04:02:18;;;;;;;4.38;3.97;;;;;;;;;;5029810;28;20045;-60
2022/09/13 04:04:45;;;;;;;5.38;4.43;;;;;;;;;;5025173;28;20112;-59
2022/09/13 04:07:12;;;;;;;4.75;4.18;;;;;;;;;;5030269;28;20025;-60
2022/09/13 04:09:38;;;;;;;5.28;4.07;;;;;;;;;;5027262;28;20045;-60
2022/09/13 04:12:04;;;;;;;5.53;4.35;;;;;;;;;;5018746;28;20029;-61
2022/09/13 04:14:30;;;;;;;4.60;4.10;;;;;;;;;;5030193;28;20108;-59
2022/09/13 04:16:57;;;;;;;13.35;4.43;;;;;;;;;;5024899;28;20030;-60
2022/09/13 04:19:23;;;;;;;5.45;4.32;;;;;;;;;;5026318;28;20057;-60
2022/09/13 04:21:50;;;;;;;5.30;3.85;;;;;;;;;;5029834;28;20030;-60
2022/09/13 04:24:17;;;;;;;7.22;4.80;;;;;;;;;;5030179;28;20034;-60
2022/09/13 04:26:43;;;;;;;4.60;4.10;;;;;;;;;;5030482;28;20033;-59
2022/09/13 04:29:09;;;;;;;5.43;4.43;;;;;;;;;;5028757;28;20030;-59
2022/09/13 04:31:34;;;;;;;5.38;4.32;;;;;;;;;;5028066;28;20033;-60
2022/09/13 04:34:01;;;;;;;6.88;4.20;;;;;;;;;;5030549;28;20029;-59
2022/09/13 04:36:27;;;;;;;8.80;4.47;;;;;;;;;;5030155;28;20021;-60
2022/09/13 04:38:53;;;;;;;5.90;4.40;;;;;;;;;;5026123;28;20029;-59
2022/09/13 04:41:19;;;;;;;5.70;4.47;;;;;;;;;;5024369;28;20041;-59
2022/09/13 04:43:49;;;;;;;5.28;4.40;;;;;;;;;;5029028;28;20029;-60
2022/09/13 04:46:15;;;;;;;7.95;4.75;;;;;;;;;;5020975;28;20489;-60
2022/09/13 04:48:41;;;;;;;5.47;4.18;;;;;;;;;;5026397;28;20029;-59
2022/09/13 04:51:07;;;;;;;6.30;4.88;;;;;;;;;;5032044;28;20033;-60
2022/09/13 04:53:33;;;;;;;6.18;4.63;;;;;;;;;;5026982;28;20037;-60
2022/09/13 04:56:00;;;;;;;6.85;4.60;;;;;;;;;;5026345;28;20030;-60
2022/09/13 04:58:26;;;;;;;6.82;5.30;;;;;;;;;;5023933;28;20630;-60
2022/09/13 05:00:55;;;;;;;5.65;4.38;;;;;;;;;;5027695;28;20033;-60
2022/09/13 05:03:21;;;;;;;6.95;4.15;;;;;;;;;;5028421;28;20072;-60
2022/09/13 05:05:47;;;;;;;7.20;4.53;;;;;;;;;;5030889;28;20037;-60
2022/09/13 05:08:13;;;;;;;7.35;4.53;;;;;;;;;;5030138;28;20038;-60
2022/09/13 05:10:39;;;;;;;7.60;4.50;;;;;;;;;;5030322;28;20045;-60
2022/09/13 05:13:05;;;;;;;7.57;4.97;;;;;;;;;;5033503;28;20033;-60
2022/09/13 05:15:31;;;;;;;6.13;4.80;;;;;;;;;;5029482;28;20083;-59
2022/09/13 05:17:57;;;;;;;7.30;4.40;;;;;;;;;;5031873;28;20049;-60
2022/09/13 05:20:23;;;;;;;6.97;4.35;;;;;;;;;;5033651;28;20022;-60
2022/09/13 05:22:49;;;;;;;6.57;5.05;;;;;;;;;;5031217;28;20374;-59
2022/09/13 05:25:15;;;;;;;5.72;4.50;;;;;;;;;;5033141;28;20389;-59
2022/09/13 05:27:41;;;;;;;9.35;4.55;;;;;;;;;;5033103;28;20036;-60
2022/09/13 05:30:07;;;;;;;7.07;4.30;;;;;;;;;;5024003;28;20532;-61
2022/09/13 05:32:33;;;;;;;5.45;4.40;;;;;;;;;;5028490;28;20485;-60
2022/09/13 05:34:59;;;;;;;9.00;4.40;;;;;;;;;;5028526;28;20036;-60
2022/09/13 05:37:25;;;;;;;5.65;4.45;;;;;;;;;;5027516;28;20056;-60
2022/09/13 05:39:51;;;;;;;8.95;4.97;;;;;;;;;;5033125;28;20038;-60
2022/09/13 05:42:17;;;;;;;11.10;5.30;;;;;;;;;;5034054;28;20044;-60
2022/09/13 05:44:43;;;;;;;7.45;5.30;;;;;;;;;;5032711;28;20539;-59
2022/09/13 05:47:09;;;;;;;5.70;5.07;;;;;;;;;;5033415;28;20412;-59
2022/09/13 05:49:35;;;;;;;9.60;5.60;;;;;;;;;;5031664;28;20393;-59
2022/09/13 05:52:01;;;;;;;10.82;6.03;;;;;;;;;;5032850;28;20052;-59
2022/09/13 05:54:27;;;;;;;10.00;5.55;;;;;;;;;;5031956;28;20035;-60
2022/09/13 05:56:56;;;;;;;12.85;5.85;;;;;;;;;;5022882;28;20025;-60
2022/09/13 05:59:22;;;;;;;8.75;5.57;;;;;;;;;;5033921;28;20040;-59
2022/09/13 06:01:48;;;;;;;9.65;5.60;;;;;;;;;;5033487;28;20057;-59
2022/09/13 06:04:14;;;;;;;8.07;5.68;;;;;;;;;;5033663;28;20056;-59
2022/09/13 06:06:40;;;;;;;9.77;6.15;;;;;;;;;;5033861;28;20420;-59
2022/09/13 06:09:07;;;;;;;8.25;6.15;;;;;;;;;;5033433;28;20030;-60
2022/09/13 06:11:33;;;;;;;7.80;6.07;;;;;;;;;;5033548;28;20111;-60
2022/09/13 06:13:59;;;;;;;8.25;5.57;;;;;;;;;;5032411;28;20463;-59
2022/09/13 06:16:25;;;;;;;8.15;5.85;;;;;;;;;;5033674;28;20068;-60
2022/09/13 06:18:51;;;;;;;7.65;5.70;;;;;;;;;;5033311;28;20500;-60
2022/09/13 06:21:19;;;;;;;6.55;5.38;;;;;;;;;;5033116;28;20507;-60
2022/09/13 06:23:49;;;;;;;7.60;6.30;;;;;;;;;;5014307;28;20075;-60
2022/09/13 06:26:16;;;;;;;8.65;6.70;;;;;;;;;;5033368;28;20030;-60
2022/09/13 06:28:43;;;;;;;8.65;6.18;;;;;;;;;;5033300;28;20472;-59
2022/09/13 06:31:10;;;;;;;10.00;6.72;;;;;;;;;;5033004;28;20057;-60
2022/09/13 06:33:37;;;;;;;9.02;6.65;;;;;;;;;;5033040;28;20075;-60
2022/09/13 06:36:04;;;;;;;7.57;5.80;;;;;;;;;;5033046;28;20425;-59
2022/09/13 06:38:31;;;;;;;9.68;6.30;;;;;;;;;;5031866;28;20040;-60
2022/09/13 06:41:00;;;;;;;7.93;6.28;;;;;;;;;;5031552;28;20108;-60
2022/09/13 06:43:27;;;;;;;8.48;6.70;;;;;;;;;;5032840;28;20029;-60
2022/09/13 06:45:53;;;;;;;8.57;6.30;;;;;;;;;;5033305;28;20044;-59
2022/09/13 06:48:19;;;;;;;7.25;6.00;;;;;;;;;;5032603;28;20034;-60
2022/09/13 06:50:45;;;;;;;10.63;6.65;;;;;;;;;;5031156;28;20030;-59
2022/09/13 06:53:11;;;;;;;7.30;5.82;;;;;;;;;;5032966;28;20021;-59
2022/09/13 06:55:37;;;;;;;9.40;7.30;;;;;;;;;;5033042;28;20071;-59
2022/09/13 06:58:03;;;;;;;9.55;6.78;;;;;;;;;;5031720;28;20030;-59
2022/09/13 07:00:29;;;;;;;8.23;6.35;;;;;;;;;;5032367;28;20025;-59
2022/09/13 07:02:55;;;;;;;12.40;7.13;;;;;;;;;;5032778;28;20025;-60
2022/09/13 07:05:21;;;;;;;9.85;7.00;;;;;;;;;;5032461;28;20029;-59
2022/09/13 07:07:47;;;;;;;16.60;7.32;;;;;;;;;;5032614;28;20022;-60
2022/09/13 07:10:13;;;;;;;9.60;6.55;;;;;;;;;;5031957;28;20025;-59
2022/09/13 07:12:41;;;;;;;11.15;7.25;;;;;;;;;;5031587;28;20048;-59
2022/09/13 07:15:07;;;;;;;12.82;7.88;;;;;;;;;;5031945;28;20028;-59
2022/09/13 07:17:33;;;;;;;10.60;6.85;;;;;;;;;;5032295;28;20026;-59
2022/09/13 07:19:59;;;;;;;11.77;7.07;;;;;;;;;;5031595;28;20107;-60
2022/09/13 07:22:26;;;;;;;11.85;7.78;;;;;;;;;;5032294;28;20030;-59
2022/09/13 07:24:53;;;;;;;11.80;7.57;;;;;;;;;;5032427;28;20084;-59
2022/09/13 07:27:18;;;;;;;14.50;7.93;;;;;;;;;;5032204;28;20029;-60
2022/09/13 07:29:44;;;;;;;9.63;6.97;;;;;;;;;;5031838;28;20021;-60
2022/09/13 07:32:10;;;;;;;10.27;6.95;;;;;;;;;;5031526;28;20095;-59
2022/09/13 07:34:36;;;;;;;12.10;7.15;;;;;;;;;;5031813;28;20026;-59
2022/09/13 07:37:02;;;;;;;9.93;7.25;;;;;;;;;;5032038;28;20044;-60
2022/09/13 07:39:28;;;;;;;8.95;6.70;;;;;;;;;;5032171;28;20129;-59
2022/09/13 07:41:54;;;;;;;10.88;7.15;;;;;;;;;;5030948;28;20579;-60
2022/09/13 07:44:21;;;;;;;12.32;7.45;;;;;;;;;;5031755;28;20481;-60
2022/09/13 07:46:47;;;;;;;9.57;7.03;;;;;;;;;;5031871;28;20022;-60
2022/09/13 07:49:14;;;;;;;9.15;5.93;;;;;;;;;;5031566;28;20075;-61
2022/09/13 07:51:41;;;;;;;9.93;7.28;;;;;;;;;;5031400;28;20033;-59
2022/09/13 07:54:10;;;;;;;11.43;7.18;;;;;;;;;;5031797;28;20021;-58
2022/09/13 07:56:37;;;;;;;13.48;7.40;;;;;;;;;;5031542;28;20104;-59
2022/09/13 07:59:05;;;;;;;9.80;7.05;;;;;;;;;;5031696;28;20031;-59
2022/09/13 08:01:35;;;;;;;9.35;6.38;;;;;;;;;;5031090;28;20025;-60
2022/09/13 08:04:02;;;;;;;10.50;7.70;;;;;;;;;;5031720;28;20108;-59
2022/09/13 08:06:30;;;;;;;8.85;6.97;;;;;;;;;;5031459;28;20052;-59
2022/09/13 08:08:56;;;;;;;9.50;6.75;;;;;;;;;;5031500;28;20025;-60
2022/09/13 08:11:23;;;;;;;10.10;6.75;;;;;;;;;;5013292;28;20033;-60
2022/09/13 08:13:50;;;;;;;7.70;5.90;;;;;;;;;;5031393;28;20018;-60
2022/09/13 08:16:17;;;;;;;8.32;6.10;;;;;;;;;;5031176;28;20028;-60
2022/09/13 08:18:44;;;;;;;10.00;6.30;;;;;;;;;;5031323;28;20042;-60
2022/09/13 08:21:10;;;;;;;9.50;6.25;;;;;;;;;;5030962;28;20017;-60
2022/09/13 08:23:36;;;;;;;10.32;6.65;;;;;;;;;;5031626;28;20599;-60
2022/09/13 08:26:02;;;;;;;9.23;5.90;;;;;;;;;;5030626;28;20025;-60
2022/09/13 08:28:30;;;;;;;11.25;7.10;;;;;;;;;;5031219;28;20408;-60
2022/09/13 08:30:56;;;;;;;10.25;6.50;;;;;;;;;;5030775;28;20025;-60
2022/09/13 08:33:22;;;;;;;9.00;6.22;;;;;;;;;;5031208;28;20036;-60
2022/09/13 08:35:51;;;;;;;8.00;6.22;;;;;;;;;;5031223;28;20026;-60
2022/09/13 08:38:17;;;;;;;11.45;6.07;;;;;;;;;;5031251;28;20492;-60
2022/09/13 08:40:46;;;;;;;7.53;5.72;;;;;;;;;;5028190;28;20501;-60
2022/09/13 08:43:28;;;;;;;8.02;5.85;;;;;;;;;;5030903;28;20038;-60
2022/09/13 08:46:10;;;;;;;8.43;5.75;;;;;;;;;;5031350;28;20034;-60
2022/09/13 08:48:39;;;;;;;9.93;5.63;;;;;;;;;;5030837;28;20532;-60
2022/09/13 08:51:12;;;;;;;7.63;5.53;;;;;;;;;;5022723;28;20049;-60
2022/09/13 08:53:44;;;;;;;7.53;5.32;;;;;;;;;;5030753;28;20040;-60
2022/09/13 08:56:17;;;;;;;8.35;5.65;;;;;;;;;;5030890;28;20489;-60
2022/09/13 08:58:45;;;;;;;;;;;;;;;;;;5031498;28;20108;-60
2022/09/13 09:01:17;;;;;;;8.15;5.43;;;;;;;;;;5029606;28;19997;-60
2022/09/13 09:03:48;;;;;;;8.32;5.07;;;;;;;;;;5030943;28;20460;-60
2022/09/13 09:06:15;;;;;;;10.60;5.25;;;;;;;;;;5030550;28;20029;-60
2022/09/13 09:09:07;;;;;;;9.55;5.28;;;;;;;;;;5030740;28;20029;-60
2022/09/13 09:11:52;;;;;;;8.45;5.13;;;;;;;;;;5015543;28;20076;-60
2022/09/13 09:14:36;;;;;;;7.45;4.43;;;;;;;;;;5030734;28;20088;-60
2022/09/13 09:17:26;;;;;;;6.78;4.75;;;;;;;;;;5030643;28;20109;-60
2022/09/13 09:20:06;;;;;;;8.05;4.35;;;;;;;;;;5022550;28;20045;-60
2022/09/13 09:22:33;;;;;;;8.35;4.13;;;;;;;;;;5030789;28;20021;-61
2022/09/13 09:25:00;;;;;;;6.10;4.10;;;;;;;;;;5030470;28;20029;-59
2022/09/13 09:27:26;;;;;;;7.68;4.20;;;;;;;;;;5029733;28;20030;-60
2022/09/13 09:29:56;;;;;;;7.85;4.15;;;;;;;;;;5029971;28;20097;-60
2022/09/13 09:32:36;;;;;;;5.35;3.75;;;;;;;;;;5030697;28;20056;-60
2022/09/13 09:35:20;;;;;;;6.63;4.40;;;;;;;;;;5030640;28;20437;-60
2022/09/13 09:37:55;;;;;;;5.03;3.92;;;;;;;;;;5031688;28;20392;-60
2022/09/13 09:40:21;;;;;;;6.85;4.57;;;;;;;;;;5033832;28;20493;-60
2022/09/13 09:42:48;;;;;;;6.53;3.65;;;;;;;;;;5034226;28;20026;-60
2022/09/13 09:45:28;;;;;;;6.55;4.57;;;;;;;;;;5034007;28;20033;-60
2022/09/13 09:47:55;;;;;;;5.57;4.32;;;;;;;;;;5025084;28;20061;-61
2022/09/13 09:50:26;;;;;;;6.32;4.63;;;;;;;;;;5032319;28;20091;-60
2022/09/13 09:53:08;;;;;;;6.82;5.25;;;;;;;;;;5034000;28;20033;-60
2022/09/13 09:55:37;;;;;;;6.82;5.22;;;;;;;;;;5033265;28;20029;-60
2022/09/13 09:58:07;;;;;;;10.93;6.53;;;;;;;;;;5016044;28;20030;-60
2022/09/13 10:00:38;;;;;;;8.05;5.53;;;;;;;;;;5033341;28;20033;-60
2022/09/13 10:03:15;;;;;;;7.07;5.72;;;;;;;;;;5033806;28;20030;-61
2022/09/13 10:05:42;;;;;;;7.75;5.18;;;;;;;;;;5033731;28;20022;-60
2022/09/13 10:08:08;;;;;;;7.18;5.00;;;;;;;;;;5033483;28;20029;-60
2022/09/13 10:10:36;;;;;;;7.10;5.22;;;;;;;;;;5033257;28;20026;-60
2022/09/13 10:13:04;;;;;;;8.52;4.53;;;;;;;;;;5032970;28;20021;-60
2022/09/13 10:15:34;;;;;;;10.75;4.85;;;;;;;;;;5033463;28;20104;-60
2022/09/13 10:18:14;;;;;;;8.20;5.03;;;;;;;;;;5033531;28;20393;-59
2022/09/13 10:20:41;;;;;;;8.35;5.72;;;;;;;;;;5032262;28;20021;-60
2022/09/13 10:23:11;;;;;;;7.97;5.63;;;;;;;;;;5033428;28;20022;-58
2022/09/13 10:25:38;;;;;;;8.20;6.40;;;;;;;;;;5033125;28;20113;-60
2022/09/13 10:28:05;;;;;;;7.50;5.75;;;;;;;;;;5032493;28;20057;-59
2022/09/13 10:30:36;;;;;;;10.18;6.47;;;;;;;;;;5032651;28;20021;-60
2022/09/13 10:33:03;;;;;;;8.73;5.55;;;;;;;;;;5033178;28;20485;-60
2022/09/13 10:35:29;;;;;;;8.57;5.93;;;;;;;;;;5033106;28;20029;-60
2022/09/13 10:37:55;;;;;;;8.75;6.18;;;;;;;;;;5032834;28;20100;-60
2022/09/13 10:40:28;;;;;;;11.07;7.05;;;;;;;;;;5030777;28;20040;-60
2022/09/13 10:42:58;;;;;;;15.00;5.65;;;;;;;;;;5032656;28;20039;-60
2022/09/13 10:45:28;;;;;;;9.68;6.32;;;;;;;;;;5032739;28;20036;-59
2022/09/13 10:47:55;;;;;;;7.85;5.32;;;;;;;;;;5032935;28;20033;-59
2022/09/13 10:50:22;;;;;;;8.32;5.75;;;;;;;;;;5031017;28;20018;-60
2022/09/13 10:52:55;;;;;;;9.75;5.75;;;;;;;;;;5025936;28;20244;-60
2022/09/13 10:55:26;;;;;;;6.43;4.55;;;;;;;;;;5032700;28;20067;-60
2022/09/13 10:57:54;;;;;;;8.35;5.53;;;;;;;;;;5032412;28;20041;-60
2022/09/13 11:00:21;;;;;;;8.68;5.40;;;;;;;;;;5032466;28;20056;-58
2022/09/13 11:02:59;;;;;;;6.97;4.97;;;;;;;;;;5032926;28;20440;-59
2022/09/13 11:05:25;;;;;;;7.80;5.68;;;;;;;;;;5032545;28;20025;-60
2022/09/13 11:08:11;;;;;;;11.45;5.80;;;;;;;;;;5032195;28;20034;-60
2022/09/13 11:10:40;;;;;;;14.18;5.07;;;;;;;;;;5032318;28;20029;-60
2022/09/13 11:13:06;;;;;;;7.75;5.22;;;;;;;;;;5013979;28;20033;-60
2022/09/13 11:15:43;;;;;;;10.23;5.28;;;;;;;;;;5032444;28;20491;-60
2022/09/13 11:18:28;;;;;;;6.88;4.80;;;;;;;;;;5032082;28;20771;-60
2022/09/13 11:20:59;;;;;;;11.05;5.97;;;;;;;;;;5031692;28;20025;-60
2022/09/13 11:23:31;;;;;;;9.63;6.40;;;;;;;;;;5032344;28;20473;-60
2022/09/13 11:26:16;;;;;;;11.57;7.40;;;;;;;;;;5031930;28;20029;-60
2022/09/13 11:28:52;;;;;;;9.27;6.57;;;;;;;;;;5027125;28;20657;-60
2022/09/13 11:31:29;;;;;;;12.95;7.60;;;;;;;;;;5021548;28;20044;-60
2022/09/13 11:33:55;;;;;;;12.80;8.40;;;;;;;;;;5030546;28;20055;-60
2022/09/13 11:36:26;;;;;;;11.23;7.15;;;;;;;;;;5029122;28;20470;-60
2022/09/13 11:39:01;;;;;;;11.45;7.38;;;;;;;;;;5027168;28;20034;-60
2022/09/13 11:41:37;;;;;;;10.88;6.82;;;;;;;;;;5029088;28;20025;-60
2022/09/13 11:44:23;;;;;;;9.48;6.43;;;;;;;;;;5031691;28;20416;-59
2022/09/13 11:46:56;;;;;;;10.88;7.03;;;;;;;;;;5028399;28;20030;-60
2022/09/13 11:49:22;;;;;;;;;;;;;;;;;;5026289;28;20725;-60
2022/09/13 11:51:49;;;;;;;9.05;6.30;;;;;;;;;;5019390;28;19909;-59
2022/09/13 11:54:21;;;;;;;11.10;5.80;;;;;;;;;;5027873;28;20040;-60
2022/09/13 11:56:52;;;;;;;13.38;6.72;;;;;;;;;;5019090;28;20477;-60
2022/09/13 11:59:35;;;;;;;10.60;6.00;;;;;;;;;;5018799;28;20034;-59
2022/09/13 12:02:04;;;;;;;10.18;6.45;;;;;;;;;;5029352;28;20064;-61
2022/09/13 12:04:34;;;;;;;9.35;6.15;;;;;;;;;;5030301;28;20037;-59
2022/09/13 12:07:02;;;;;;;8.50;5.55;;;;;;;;;;5030736;28;20112;-60
2022/09/13 12:09:30;;;;;;;11.13;7.28;;;;;;;;;;5031356;28;20021;-60
2022/09/13 12:12:04;;;;;;;9.00;5.78;;;;;;;;;;5031021;28;20495;-60
2022/09/13 12:14:35;;;;;;;9.38;5.90;;;;;;;;;;5031326;28;20083;-60
2022/09/13 12:17:08;;;;;;;11.40;6.22;;;;;;;;;;5030343;28;20029;-60
2022/09/13 12:19:42;;;;;;;9.93;6.35;;;;;;;;;;5012625;28;20042;-60
2022/09/13 12:22:09;;;;;;;8.18;5.47;;;;;;;;;;5022106;28;20029;-60
2022/09/13 12:24:41;;;;;;;9.50;6.22;;;;;;;;;;5030007;28;20083;-60
2022/09/13 12:27:27;;;;;;;10.53;6.90;;;;;;;;;;5030920;28;20021;-60
2022/09/13 12:29:57;;;;;;;10.57;6.78;;;;;;;;;;5029856;28;20440;-60
2022/09/13 12:32:23;;;;;;;10.55;7.30;;;;;;;;;;5028347;28;20033;-60
2022/09/13 12:35:01;;;;;;;12.20;7.53;;;;;;;;;;5019483;28;20537;-60
2022/09/13 12:37:36;;;;;;;10.52;6.45;;;;;;;;;;5030101;28;20047;-60
2022/09/13 12:40:13;;;;;;;12.93;6.90;;;;;;;;;;5027025;28;20033;-60
2022/09/13 12:42:58;;;;;;;10.55;6.90;;;;;;;;;;5023816;28;20037;-60
2022/09/13 12:45:51;;;;;;;12.80;7.35;;;;;;;;;;5026714;28;20100;-60
2022/09/13 12:48:16;;;;;;;9.10;6.75;;;;;;;;;;5020894;28;20401;-59
2022/09/13 12:50:45;;;;;;;10.63;6.78;;;;;;;;;;5022604;28;20030;-60
2022/09/13 12:53:30;;;;;;;10.05;6.82;;;;;;;;;;5027447;28;20060;-60
2022/09/13 12:56:13;;;;;;;12.70;6.47;;;;;;;;;;5025671;28;20476;-60
2022/09/13 12:58:58;;;;;;;11.10;6.50;;;;;;;;;;5021415;28;20033;-60
2022/09/13 13:01:25;;;;;;;9.18;6.47;;;;;;;;;;5024196;28;20429;-60
2022/09/13 13:03:56;;;;;;;10.07;6.25;;;;;;;;;;5026950;28;20709;-60
2022/09/13 13:06:32;;;;;;;10.85;6.57;;;;;;;;;;5023195;28;20040;-60
2022/09/13 13:09:00;;;;;;;10.43;6.63;;;;;;;;;;5021870;28;20552;-60
2022/09/13 13:11:28;;;;;;;9.52;6.78;;;;;;;;;;5018486;28;20465;-60
2022/09/13 13:13:59;;;;;;;10.55;6.28;;;;;;;;;;5027984;28;20075;-60
2022/09/13 13:16:25;;;;;;;11.10;6.07;;;;;;;;;;5033074;28;20040;-60
2022/09/13 13:18:53;;;;;;;9.45;6.03;;;;;;;;;;5032026;28;20046;-60
2022/09/13 13:21:33;;;;;;;8.85;6.30;;;;;;;;;;5032153;28;20021;-60
2022/09/13 13:24:14;;;;;;;9.10;6.25;;;;;;;;;;5030879;28;20030;-60
2022/09/13 13:26:43;;;;;;;7.80;5.22;;;;;;;;;;5032854;28;20029;-60
2022/09/13 13:29:14;;;;;;;7.18;5.40;;;;;;;;;;5030016;28;20026;-60
2022/09/13 13:31:44;;;;;;;9.95;5.25;;;;;;;;;;5021933;28;20026;-59
2022/09/13 13:34:13;;;;;;;6.75;4.50;;;;;;;;;;5026385;28;20028;-60
2022/09/13 13:36:39;;;;;;;6.78;4.78;;;;;;;;;;5008015;28;20432;-60
2022/09/13 13:39:23;;;;;;;8.55;4.20;;;;;;;;;;5031421;28;20025;-60
2022/09/13 13:42:08;;;;;;;8.20;4.10;;;;;;;;;;5024225;28;20503;-59
2022/09/13 13:44:34;;;;;;;6.38;4.45;;;;;;;;;;5025965;28;20030;-60
2022/09/13 13:47:23;;;;;;;6.57;4.03;;;;;;;;;;5028380;28;20030;-60
2022/09/13 13:50:01;;;;;;;5.15;3.58;;;;;;;;;;5025714;28;20124;-60
2022/09/13 13:52:35;;;;;;;8.25;4.47;;;;;;;;;;5028006;28;20120;-60
2022/09/13 13:55:03;;;;;;;4.95;3.40;;;;;;;;;;5029191;28;20508;-60
2022/09/13 13:57:38;;;;;;;6.28;3.42;;;;;;;;;;5027269;28;20022;-60
2022/09/13 14:00:05;;;;;;;14.45;4.25;;;;;;;;;;5021502;28;20045;-60
2022/09/13 14:02:36;;;;;;;5.10;3.75;;;;;;;;;;5021373;28;20025;-59
2022/09/13 14:05:14;;;;;;;5.60;3.70;;;;;;;;;;5028364;28;20056;-59
2022/09/13 14:07:59;;;;;;;5.55;3.80;;;;;;;;;;5028771;28;20384;-60
2022/09/13 14:10:28;;;;;;;7.32;4.97;;;;;;;;;;5023410;28;20116;-60
2022/09/13 14:13:03;;;;;;;6.75;4.22;;;;;;;;;;5027554;28;20489;-60
2022/09/13 14:15:40;;;;;;;7.43;4.78;;;;;;;;;;5023085;28;20033;-59
2022/09/13 14:18:06;;;;;;;7.35;4.13;;;;;;;;;;5024609;28;20623;-60
2022/09/13 14:20:32;;;;;;;7.22;4.88;;;;;;;;;;5029285;28;20033;-59
2022/09/13 14:23:17;;;;;;;7.38;5.03;;;;;;;;;;5027934;28;20397;-60
2022/09/13 14:25:44;;;;;;;7.60;5.00;;;;;;;;;;5028692;28;20041;-60
2022/09/13 14:28:13;;;;;;;8.63;5.90;;;;;;;;;;5030518;28;20057;-59
2022/09/13 14:30:39;;;;;;;8.77;5.70;;;;;;;;;;5029981;28;20032;-60
2022/09/13 14:33:07;;;;;;;6.32;5.18;;;;;;;;;;5029884;28;20029;-60
2022/09/13 14:35:34;;;;;;;8.25;5.43;;;;;;;;;;5030341;28;20569;-59
2022/09/13 14:38:19;;;;;;;7.63;5.25;;;;;;;;;;5028523;28;20033;-59
2022/09/13 14:40:48;;;;;;;9.32;7.07;;;;;;;;;;5025357;28;20053;-60
2022/09/13 14:43:15;;;;;;;9.75;6.90;;;;;;;;;;5030752;28;20037;-60
2022/09/13 14:45:43;;;;;;;9.30;6.20;;;;;;;;;;5026539;28;20033;-60
2022/09/13 14:48:16;;;;;;;9.93;7.18;;;;;;;;;;5031993;28;20032;-59
2022/09/13 14:50:53;;;;;;;17.45;7.13;;;;;;;;;;5027538;28;20033;-60
2022/09/13 14:53:21;;;;;;;12.18;6.03;;;;;;;;;;5007635;28;20025;-60
2022/09/13 14:55:52;;;;;;;8.52;6.55;;;;;;;;;;5027911;28;20037;-60
2022/09/13 14:58:28;;;;;;;8.13;6.63;;;;;;;;;;5032126;28;20500;-60
2022/09/13 15:00:58;;;;;;;8.10;5.88;;;;;;;;;;5024107;28;20064;-60